Time;durP1;ratioP1;P1;durP2;ratioP2;P2;SDS_P1;SDS_P2;PMS_P1;PMS_P2;Temp;Humidity;BMP_temperature;BMP_pressure;BME280_temperature;BME280_humidity;BME280_pressure;Samples;Min_cycle;Max_cycle;Signal;HPM_P1;HPM_P2
2023/06/26 00:01:24;;;;;;;9.52;6.03;;;21.20;71.60;;;;;;5051206;28;20439;-94
2023/06/26 00:03:49;;;;;;;7.93;5.30;;;21.20;71.70;;;;;;5046963;28;20087;-94
2023/06/26 00:06:15;;;;;;;8.85;5.40;;;21.20;71.60;;;;;;5045377;28;20031;-95
2023/06/26 00:08:40;;;;;;;9.75;5.95;;;21.20;71.70;;;;;;5045293;28;20022;-94
2023/06/26 00:11:06;;;;;;;10.82;5.97;;;21.20;71.70;;;;;;5048782;28;20366;-95
2023/06/26 00:13:32;;;;;;;10.05;5.25;;;21.20;71.80;;;;;;5046772;28;20032;-93
2023/06/26 00:15:57;;;;;;;7.80;5.05;;;21.20;71.80;;;;;;5053481;28;20210;-94
2023/06/26 00:18:23;;;;;;;9.80;5.82;;;21.20;71.80;;;;;;5048075;28;20032;-95
2023/06/26 00:20:49;;;;;;;15.27;5.57;;;21.20;71.80;;;;;;5049327;28;20070;-93
2023/06/26 00:23:17;;;;;;;7.43;4.80;;;21.20;71.80;;;;;;5047006;28;20033;-94
2023/06/26 00:25:43;;;;;;;8.75;5.57;;;21.20;71.80;;;;;;5066237;28;20025;-95
2023/06/26 00:28:09;;;;;;;9.32;5.28;;;21.20;71.90;;;;;;5046413;28;20036;-95
2023/06/26 00:30:35;;;;;;;9.02;5.68;;;21.20;71.90;;;;;;5051358;28;20139;-95
2023/06/26 00:33:01;;;;;;;8.45;5.20;;;21.20;72.00;;;;;;5047468;28;20021;-94
2023/06/26 00:35:27;;;;;;;10.30;5.65;;;21.10;72.00;;;;;;5082448;28;20021;-94
2023/06/26 00:37:52;;;;;;;10.85;5.32;;;21.10;72.00;;;;;;5048707;28;20027;-94
2023/06/26 00:40:18;;;;;;;12.90;6.28;;;21.10;72.10;;;;;;5079993;28;20392;-94
2023/06/26 00:42:44;;;;;;;11.05;5.60;;;21.10;72.10;;;;;;5081635;28;20495;-94
2023/06/26 00:45:09;;;;;;;9.68;5.80;;;21.10;72.10;;;;;;5050015;28;20087;-94
2023/06/26 00:47:36;;;;;;;10.25;6.22;;;21.10;72.10;;;;;;5077575;28;20016;-94
2023/06/26 00:50:02;;;;;;;8.57;5.75;;;21.10;72.10;;;;;;5051156;28;20043;-93
2023/06/26 00:52:27;;;;;;;13.07;6.03;;;21.10;72.30;;;;;;5080781;28;20548;-94
2023/06/26 00:54:53;;;;;;;11.02;5.75;;;21.10;72.20;;;;;;5048027;28;20048;-94
2023/06/26 00:57:19;;;;;;;9.10;5.70;;;21.10;72.20;;;;;;5045805;28;20075;-94
2023/06/26 00:59:45;;;;;;;10.50;5.82;;;21.10;72.30;;;;;;5044983;28;20039;-94
2023/06/26 01:02:11;;;;;;;10.82;5.93;;;21.10;72.40;;;;;;5049917;28;20032;-94
2023/06/26 01:04:36;;;;;;;11.38;6.00;;;21.10;72.40;;;;;;5050755;28;20512;-93
2023/06/26 01:07:03;;;;;;;12.60;6.45;;;21.10;72.40;;;;;;5051066;28;20408;-93
2023/06/26 01:09:29;;;;;;;11.10;5.85;;;21.10;72.40;;;;;;5082116;28;20029;-92
2023/06/26 01:11:55;;;;;;;11.05;6.22;;;21.10;72.50;;;;;;5048721;28;20023;-92
2023/06/26 01:14:21;;;;;;;10.30;6.38;;;21.10;72.50;;;;;;5046316;28;20484;-92
2023/06/26 01:16:48;;;;;;;9.55;5.65;;;21.10;72.60;;;;;;5042724;28;20051;-93
2023/06/26 01:19:26;;;;;;;10.48;5.85;;;21.10;72.60;;;;;;5043741;28;20025;-93
2023/06/26 01:22:00;;;;;;;10.30;6.20;;;21.10;72.60;;;;;;5074595;28;20024;-94
2023/06/26 01:24:33;;;;;;;10.05;5.80;;;21.10;72.70;;;;;;5080074;28;20137;-93
2023/06/26 01:27:00;;;;;;;9.07;5.55;;;21.10;72.80;;;;;;5048907;28;20029;-95
2023/06/26 01:29:27;;;;;;;10.55;6.10;;;21.10;72.90;;;;;;5046863;28;20658;-93
2023/06/26 01:31:53;;;;;;;9.75;5.68;;;21.10;72.90;;;;;;5069766;28;20032;-94
2023/06/26 01:34:20;;;;;;;14.32;6.50;;;21.10;72.90;;;;;;5051908;28;20020;-95
2023/06/26 01:36:45;;;;;;;12.18;6.65;;;21.10;72.90;;;;;;5087269;28;20048;-95
2023/06/26 01:39:15;;;;;;;14.10;6.68;;;21.10;73.00;;;;;;5051973;28;20029;-94
2023/06/26 01:41:41;;;;;;;12.85;6.75;;;21.00;72.90;;;;;;5058757;28;20048;-94
2023/06/26 01:44:07;;;;;;;17.27;6.53;;;21.00;72.90;;;;;;5055518;28;20039;-94
2023/06/26 01:47:01;;;;;;;11.23;5.85;;;21.10;72.90;;;;;;5078072;28;20049;-93
2023/06/26 01:49:44;;;;;;;12.32;6.30;;;21.00;72.90;;;;;;5080920;28;20021;-94
2023/06/26 01:52:14;;;;;;;10.90;6.32;;;21.00;72.90;;;;;;5059123;28;20029;-95
2023/06/26 01:54:56;;;;;;;11.18;6.25;;;21.00;73.10;;;;;;5075972;28;20024;-90
2023/06/26 01:57:26;;;;;;;16.27;7.00;;;21.00;73.10;;;;;;5056391;28;20025;-93
2023/06/26 01:59:54;;;;;;;11.80;6.47;;;21.00;73.10;;;;;;5057250;28;20047;-94
2023/06/26 02:02:19;;;;;;;14.13;6.53;;;21.00;73.10;;;;;;5055313;28;20229;-93
2023/06/26 02:04:48;;;;;;;11.13;6.32;;;21.00;73.10;;;;;;5050095;28;20033;-94
2023/06/26 02:07:14;;;;;;;13.40;6.30;;;21.00;73.20;;;;;;5052517;28;20552;-94
2023/06/26 02:09:39;;;;;;;14.05;6.65;;;21.00;73.30;;;;;;5074920;28;20163;-94
2023/06/26 02:12:05;;;;;;;14.07;6.60;;;21.00;74.10;;;;;;5054283;28;20020;-95
2023/06/26 02:14:31;;;;;;;11.25;6.63;;;21.00;73.30;;;;;;5043693;28;20051;-94
2023/06/26 02:16:57;;;;;;;11.35;6.20;;;21.00;73.30;;;;;;5086009;28;20433;-95
2023/06/26 02:19:22;;;;;;;11.07;6.10;;;21.00;73.30;;;;;;5048012;28;20469;-95
2023/06/26 02:21:51;;;;;;;13.65;6.28;;;21.00;73.30;;;;;;5054855;28;20024;-95
2023/06/26 02:24:17;;;;;;;12.63;6.00;;;21.00;73.40;;;;;;5058050;28;20154;-94
2023/06/26 02:26:42;;;;;;;11.52;6.63;;;21.00;73.40;;;;;;5047729;28;20119;-93
2023/06/26 02:29:08;;;;;;;11.10;6.65;;;21.00;73.40;;;;;;5049472;28;20017;-93
2023/06/26 02:31:34;;;;;;;10.25;5.85;;;21.00;73.40;;;;;;5052709;28;20091;-94
2023/06/26 02:33:59;;;;;;;13.07;6.72;;;21.00;73.50;;;;;;5053692;28;20029;-94
2023/06/26 02:36:25;;;;;;;10.82;6.10;;;21.00;73.50;;;;;;5056081;28;20372;-93
2023/06/26 02:38:50;;;;;;;23.20;6.68;;;21.00;73.50;;;;;;5048566;28;20523;-93
2023/06/26 02:41:16;;;;;;;11.95;6.78;;;20.90;73.40;;;;;;5054999;28;20055;-92
2023/06/26 02:43:42;;;;;;;9.75;5.78;;;20.90;73.40;;;;;;5080007;28;20032;-94
2023/06/26 02:46:07;;;;;;;11.25;5.75;;;20.90;73.50;;;;;;5050862;28;20066;-94
2023/06/26 02:48:33;;;;;;;11.15;6.30;;;20.90;73.50;;;;;;5050306;28;20473;-94
2023/06/26 02:50:59;;;;;;;10.65;6.13;;;21.00;73.60;;;;;;5083934;28;20478;-94
2023/06/26 02:53:24;;;;;;;11.15;6.30;;;21.00;73.60;;;;;;5050370;28;20025;-94
2023/06/26 02:55:50;;;;;;;12.20;6.65;;;20.90;73.50;;;;;;5047358;28;20029;-93
2023/06/26 02:58:16;;;;;;;11.07;6.63;;;20.90;73.50;;;;;;5051753;28;20028;-94
2023/06/26 03:00:43;;;;;;;18.13;7.18;;;20.90;73.60;;;;;;5048751;28;20496;-94
2023/06/26 03:03:09;;;;;;;12.13;6.43;;;20.90;73.50;;;;;;5081178;28;20021;-93
2023/06/26 03:05:35;;;;;;;19.13;6.68;;;20.90;73.60;;;;;;5053062;28;20029;-94
2023/06/26 03:08:02;;;;;;;11.27;6.15;;;20.90;73.60;;;;;;5046673;28;20107;-92
2023/06/26 03:10:28;;;;;;;11.32;6.15;;;20.90;73.60;;;;;;5044694;28;20552;-93
2023/06/26 03:12:53;;;;;;;12.82;6.68;;;20.90;73.60;;;;;;5047074;28;20120;-93
2023/06/26 03:15:19;;;;;;;9.50;5.78;;;20.90;73.60;;;;;;5047386;28;20024;-94
2023/06/26 03:17:45;;;;;;;14.75;6.90;;;20.90;73.70;;;;;;5044912;28;20013;-94
2023/06/26 03:20:10;;;;;;;10.00;5.95;;;20.90;73.60;;;;;;5083600;28;20017;-94
2023/06/26 03:22:36;;;;;;;12.20;6.78;;;20.90;73.60;;;;;;5048285;28;20108;-93
2023/06/26 03:25:04;;;;;;;11.23;6.05;;;20.90;73.60;;;;;;5046892;28;20060;-90
2023/06/26 03:27:30;;;;;;;11.27;6.65;;;20.90;73.60;;;;;;5046988;28;20020;-95
2023/06/26 03:29:56;;;;;;;18.02;6.30;;;20.90;73.60;;;;;;5081362;28;20027;-95
2023/06/26 03:32:21;;;;;;;13.70;6.85;;;20.90;73.60;;;;;;5051804;28;20115;-94
2023/06/26 03:34:47;;;;;;;13.10;6.75;;;20.80;73.60;;;;;;5076036;28;20017;-95
2023/06/26 03:37:13;;;;;;;10.38;6.30;;;20.90;73.60;;;;;;5079696;28;20074;-95
2023/06/26 03:39:38;;;;;;;11.07;6.43;;;20.90;73.70;;;;;;5048595;28;20025;-92
2023/06/26 03:42:04;;;;;;;10.55;6.30;;;20.90;73.70;;;;;;5047120;28;20056;-95
2023/06/26 03:44:30;;;;;;;10.30;6.35;;;20.90;73.60;;;;;;5051891;28;20389;-95
2023/06/26 03:46:56;;;;;;;11.30;5.95;;;20.90;73.60;;;;;;5081066;28;20021;-94
2023/06/26 03:49:22;;;;;;;12.45;6.72;;;20.90;73.60;;;;;;5051805;28;20013;-94
2023/06/26 03:51:47;;;;;;;11.60;6.13;;;20.90;73.70;;;;;;5075476;28;20055;-94
2023/06/26 03:54:13;;;;;;;10.80;6.68;;;20.80;73.70;;;;;;5068220;28;20013;-93
2023/06/26 03:56:38;;;;;;;11.02;6.38;;;20.80;73.70;;;;;;5051513;28;20068;-95
2023/06/26 03:59:04;;;;;;;15.07;6.18;;;20.80;73.70;;;;;;5051084;28;20024;-94
2023/06/26 04:01:30;;;;;;;10.85;5.90;;;20.90;73.80;;;;;;5055105;28;20055;-94
2023/06/26 04:03:55;;;;;;;12.07;6.38;;;20.90;73.80;;;;;;5054317;28;20017;-94
2023/06/26 04:06:21;;;;;;;11.82;6.25;;;20.80;73.70;;;;;;5052587;28;20028;-94
2023/06/26 04:08:47;;;;;;;15.13;6.70;;;20.80;73.70;;;;;;5078423;28;20100;-94
2023/06/26 04:11:13;;;;;;;9.25;5.90;;;20.80;73.80;;;;;;5047444;28;20032;-94
2023/06/26 04:13:39;;;;;;;12.48;5.80;;;20.80;73.90;;;;;;5047562;28;20029;-94
2023/06/26 04:16:05;;;;;;;11.10;6.57;;;20.80;73.80;;;;;;5085838;28;20024;-94
2023/06/26 04:18:30;;;;;;;13.85;6.03;;;20.80;73.90;;;;;;5054344;28;20107;-95
2023/06/26 04:21:12;;;;;;;12.88;7.30;;;20.80;73.90;;;;;;5047785;28;20550;-92
2023/06/26 04:23:39;;;;;;;11.00;5.95;;;20.80;74.00;;;;;;5048805;28;20538;-95
2023/06/26 04:26:06;;;;;;;14.30;6.57;;;20.80;74.00;;;;;;5081219;28;20032;-95
2023/06/26 04:28:33;;;;;;;9.50;5.82;;;20.80;74.00;;;;;;5052347;28;20016;-95
2023/06/26 04:30:59;;;;;;;10.32;6.70;;;20.90;74.00;;;;;;5073660;28;20029;-94
2023/06/26 04:33:26;;;;;;;11.70;5.30;;;20.80;74.00;;;;;;5051325;28;20013;-95
2023/06/26 04:35:52;;;;;;;16.83;6.55;;;20.80;74.10;;;;;;5070719;28;20029;-95
2023/06/26 04:38:19;;;;;;;9.93;6.30;;;20.80;74.10;;;;;;5070161;28;20119;-95
2023/06/26 04:40:45;;;;;;;12.60;6.05;;;20.80;74.10;;;;;;5074341;28;20023;-95
2023/06/26 04:43:11;;;;;;;14.95;6.15;;;20.80;74.10;;;;;;5045224;28;20029;-94
2023/06/26 04:45:37;;;;;;;18.33;6.45;;;20.80;74.10;;;;;;5060618;28;20068;-96
2023/06/26 04:48:03;;;;;;;11.02;6.20;;;20.80;74.10;;;;;;5079302;28;20016;-94
2023/06/26 04:50:31;;;;;;;13.10;6.32;;;20.80;74.20;;;;;;5047256;28;20029;-95
2023/06/26 04:52:57;;;;;;;13.18;6.00;;;20.80;74.20;;;;;;5071447;28;20068;-93
2023/06/26 04:55:27;;;;;;;10.65;6.55;;;20.80;74.30;;;;;;5053037;28;20052;-95
2023/06/26 04:57:53;;;;;;;12.50;6.82;;;20.80;74.30;;;;;;5051361;28;20016;-95
2023/06/26 05:00:19;;;;;;;12.82;6.22;;;20.80;74.40;;;;;;5048184;28;20370;-95
2023/06/26 05:02:45;;;;;;;10.27;6.43;;;20.80;74.40;;;;;;5065458;28;20105;-95
2023/06/26 05:05:11;;;;;;;22.90;6.30;;;20.80;74.40;;;;;;5050936;28;20028;-94
2023/06/26 05:07:37;;;;;;;10.88;6.43;;;20.80;74.50;;;;;;5052766;28;20074;-94
2023/06/26 05:10:03;;;;;;;11.52;6.20;;;20.90;74.60;;;;;;5049303;28;20043;-96
2023/06/26 05:12:29;;;;;;;13.00;6.32;;;20.90;74.50;;;;;;5048945;28;20016;-95
2023/06/26 05:14:55;;;;;;;11.18;6.75;;;20.90;74.50;;;;;;5046688;28;20029;-92
2023/06/26 05:17:20;;;;;;;13.57;6.57;;;20.90;74.50;;;;;;5050434;28;20055;-95
2023/06/26 05:19:46;;;;;;;12.75;6.43;;;20.90;74.50;;;;;;5050338;28;20028;-94
2023/06/26 05:22:13;;;;;;;9.50;6.18;;;20.90;74.50;;;;;;5051998;28;20028;-95
2023/06/26 05:24:39;;;;;;;12.25;6.30;;;20.90;74.60;;;;;;5050480;28;20021;-96
2023/06/26 05:27:06;;;;;;;11.48;5.43;;;21.00;74.70;;;;;;5069408;28;20017;-96
2023/06/26 05:29:33;;;;;;;11.40;6.93;;;21.00;74.60;;;;;;5052197;28;20436;-95
2023/06/26 05:31:59;;;;;;;11.02;5.78;;;21.00;74.60;;;;;;5048668;28;20094;-94
2023/06/26 05:34:28;;;;;;;11.57;7.38;;;21.00;74.70;;;;;;5085798;28;20021;-95
2023/06/26 05:36:58;;;;;;;13.25;6.93;;;21.00;74.70;;;;;;5082785;28;20048;-95
2023/06/26 05:39:24;;;;;;;12.90;6.85;;;21.00;74.70;;;;;;5078312;28;20115;-92
2023/06/26 05:41:50;;;;;;;15.00;7.90;;;21.00;74.70;;;;;;5079861;28;20410;-93
2023/06/26 05:44:16;;;;;;;8.90;5.20;;;21.00;74.70;;;;;;5083020;28;20032;-94
2023/06/26 05:46:42;;;;;;;14.43;6.43;;;21.10;74.90;;;;;;5054343;28;20031;-96
2023/06/26 05:49:14;;;;;;;12.13;6.57;;;21.10;75.00;;;;;;5050648;28;20048;-95
2023/06/26 05:51:39;;;;;;;12.25;5.80;;;21.10;75.00;;;;;;5048609;28;20029;-91
2023/06/26 05:54:05;;;;;;;12.48;6.60;;;21.10;75.10;;;;;;5048523;28;20031;-93
2023/06/26 05:56:32;;;;;;;12.82;6.93;;;21.10;75.00;;;;;;5055537;28;20750;-92
2023/06/26 05:58:58;;;;;;;15.30;6.28;;;21.10;74.90;;;;;;5054243;28;20017;-94
2023/06/26 06:01:24;;;;;;;13.98;7.57;;;21.10;74.90;;;;;;5052731;28;20513;-93
2023/06/26 06:03:50;;;;;;;12.15;6.30;;;21.10;74.90;;;;;;5068115;28;20032;-93
2023/06/26 06:06:15;;;;;;;19.65;6.97;;;21.10;74.90;;;;;;5083342;28;20112;-95
2023/06/26 06:08:41;;;;;;;13.43;6.30;;;21.20;75.00;;;;;;5055275;28;20017;-95
2023/06/26 06:11:10;;;;;;;15.90;7.15;;;21.20;75.20;;;;;;5087527;28;20046;-95
2023/06/26 06:13:35;;;;;;;16.80;7.65;;;21.20;75.40;;;;;;5052530;28;20055;-94
2023/06/26 06:16:01;;;;;;;13.55;6.45;;;21.20;75.50;;;;;;5082458;28;20049;-95
2023/06/26 06:18:27;;;;;;;11.63;6.25;;;21.20;76.50;;;;;;5082704;28;20058;-94
2023/06/26 06:20:52;;;;;;;12.27;7.30;;;21.20;75.90;;;;;;5051351;28;20074;-95
2023/06/26 06:23:19;;;;;;;9.90;5.78;;;21.20;76.10;;;;;;5050318;28;20084;-93
2023/06/26 06:25:45;;;;;;;15.15;5.65;;;21.20;75.90;;;;;;5049183;28;20021;-95
2023/06/26 06:28:11;;;;;;;18.50;7.22;;;21.20;76.50;;;;;;5042137;28;20095;-95
2023/06/26 06:30:36;;;;;;;16.45;6.38;;;21.30;76.40;;;;;;5054215;28;20027;-95
2023/06/26 06:33:02;;;;;;;13.98;6.20;;;21.30;76.30;;;;;;5047587;28;20156;-94
2023/06/26 06:35:28;;;;;;;17.02;6.57;;;21.20;76.50;;;;;;5086198;28;20021;-94
2023/06/26 06:37:54;;;;;;;15.15;6.57;;;21.30;77.40;;;;;;5054045;28;20028;-95
2023/06/26 06:40:22;;;;;;;13.52;5.88;;;21.30;76.60;;;;;;5049081;28;20199;-94
2023/06/26 06:42:48;;;;;;;11.38;6.22;;;21.30;76.50;;;;;;5051488;28;20074;-95
2023/06/26 06:45:13;;;;;;;12.88;6.10;;;21.30;76.40;;;;;;5080457;28;20025;-94
2023/06/26 06:47:39;;;;;;;15.77;6.43;;;21.30;75.90;;;;;;5053195;28;20028;-94
2023/06/26 06:50:08;;;;;;;13.10;6.75;;;21.40;75.80;;;;;;5083179;28;20012;-96
2023/06/26 06:52:39;;;;;;;10.43;6.65;;;21.40;75.60;;;;;;5085355;28;20576;-93
2023/06/26 06:55:08;;;;;;;12.90;5.97;;;21.40;75.40;;;;;;5047338;28;20032;-94
2023/06/26 06:57:37;;;;;;;9.40;6.22;;;21.30;75.30;;;;;;5083023;28;20026;-90
2023/06/26 07:00:08;;;;;;;11.50;5.63;;;21.30;75.10;;;;;;5047677;28;20029;-95
2023/06/26 07:02:38;;;;;;;11.68;5.97;;;21.40;75.30;;;;;;5063273;28;20024;-94
2023/06/26 07:05:04;;;;;;;11.20;5.55;;;21.30;75.00;;;;;;5075474;28;20143;-93
2023/06/26 07:07:32;;;;;;;11.38;6.20;;;21.40;75.10;;;;;;5078349;28;20396;-93
2023/06/26 07:10:04;;;;;;;11.60;7.10;;;21.40;75.00;;;;;;5048502;28;20024;-93
2023/06/26 07:12:29;;;;;;;17.08;6.25;;;21.40;74.80;;;;;;5082563;28;20032;-94
2023/06/26 07:14:58;;;;;;;13.65;6.72;;;21.40;75.00;;;;;;5046853;28;20021;-92
2023/06/26 07:17:23;;;;;;;11.57;6.55;;;21.50;74.70;;;;;;5050445;28;20032;-94
2023/06/26 07:19:49;;;;;;;18.38;6.68;;;21.40;74.80;;;;;;5042415;28;20021;-95
2023/06/26 07:22:16;;;;;;;12.20;6.97;;;21.50;74.50;;;;;;5077263;28;20029;-94
2023/06/26 07:24:41;;;;;;;11.32;6.60;;;21.50;74.80;;;;;;5046875;28;20029;-94
2023/06/26 07:27:07;;;;;;;11.98;6.53;;;21.50;74.80;;;;;;5042655;28;20090;-95
2023/06/26 07:29:33;;;;;;;18.20;6.78;;;21.50;74.90;;;;;;5043165;28;20043;-93
2023/06/26 07:31:58;;;;;;;13.18;6.68;;;21.50;74.90;;;;;;5074126;28;20167;-94
2023/06/26 07:34:24;;;;;;;11.35;6.97;;;21.50;74.80;;;;;;5046658;28;20071;-95
2023/06/26 07:36:50;;;;;;;12.02;7.10;;;21.50;74.70;;;;;;5051333;28;20028;-95
2023/06/26 07:39:16;;;;;;;12.90;6.05;;;21.50;74.50;;;;;;5046431;28;20123;-91
2023/06/26 07:41:41;;;;;;;13.05;7.38;;;21.60;74.70;;;;;;5048355;28;20044;-94
2023/06/26 07:44:07;;;;;;;11.02;6.50;;;21.50;74.70;;;;;;5051771;28;20028;-94
2023/06/26 07:46:32;;;;;;;11.40;6.63;;;21.60;74.70;;;;;;5046370;28;20021;-94
2023/06/26 07:48:58;;;;;;;11.43;6.07;;;21.60;74.60;;;;;;5048326;28;20045;-95
2023/06/26 07:51:24;;;;;;;15.00;6.25;;;21.50;74.60;;;;;;5078611;28;20060;-92
2023/06/26 07:53:49;;;;;;;10.57;5.95;;;21.50;74.70;;;;;;5046260;28;20058;-95
2023/06/26 07:56:15;;;;;;;11.65;6.10;;;21.60;74.90;;;;;;5049294;28;20028;-95
2023/06/26 07:58:41;;;;;;;12.98;6.28;;;21.60;75.10;;;;;;5049700;28;20029;-96
2023/06/26 08:01:06;;;;;;;8.23;5.70;;;21.60;74.80;;;;;;5044749;28;20027;-94
2023/06/26 08:03:32;;;;;;;8.95;5.57;;;21.60;74.90;;;;;;5048993;28;20124;-93
2023/06/26 08:05:57;;;;;;;11.18;6.18;;;21.70;74.90;;;;;;5049061;28;20052;-94
2023/06/26 08:08:23;;;;;;;10.30;6.30;;;21.60;74.80;;;;;;5045264;28;20024;-93
2023/06/26 08:10:49;;;;;;;9.18;5.55;;;21.70;74.90;;;;;;5046502;28;20066;-94
2023/06/26 08:13:14;;;;;;;12.25;6.60;;;21.70;74.60;;;;;;5049966;28;20676;-95
2023/06/26 08:15:40;;;;;;;10.43;6.00;;;21.70;74.80;;;;;;5047409;28;20587;-94
2023/06/26 08:18:06;;;;;;;12.65;5.93;;;21.70;75.00;;;;;;5049171;28;20040;-93
2023/06/26 08:20:31;;;;;;;9.05;5.50;;;21.70;75.20;;;;;;5047893;28;20020;-95
2023/06/26 08:22:57;;;;;;;9.45;5.80;;;21.70;75.00;;;;;;5047678;28;20392;-92
2023/06/26 08:25:22;;;;;;;9.82;5.45;;;21.70;75.40;;;;;;5052949;28;20025;-94
2023/06/26 08:27:48;;;;;;;10.10;6.10;;;21.70;75.20;;;;;;5049270;28;20465;-95
2023/06/26 08:30:16;;;;;;;8.80;5.50;;;21.80;75.50;;;;;;5046840;28;20056;-93
2023/06/26 08:32:42;;;;;;;8.48;5.13;;;21.70;75.20;;;;;;5082699;28;20052;-93
2023/06/26 08:35:10;;;;;;;9.45;5.57;;;21.70;75.50;;;;;;5050364;28;20432;-92
2023/06/26 08:37:35;;;;;;;10.13;5.13;;;21.70;75.40;;;;;;5045470;28;20029;-91
2023/06/26 08:40:01;;;;;;;12.90;4.93;;;21.70;75.70;;;;;;5053557;28;20548;-91
2023/06/26 08:42:26;;;;;;;11.52;5.65;;;21.70;75.50;;;;;;5086428;28;20021;-92
2023/06/26 08:44:52;;;;;;;9.55;4.95;;;21.70;75.90;;;;;;5053015;28;20031;-91
2023/06/26 08:47:19;;;;;;;13.23;4.75;;;21.70;76.00;;;;;;5051260;28;20128;-90
2023/06/26 08:50:00;;;;;;;11.50;5.35;;;21.70;76.20;;;;;;5050339;28;20040;-92
2023/06/26 08:52:33;;;;;;;9.55;5.65;;;21.70;75.70;;;;;;5051403;28;20033;-90
2023/06/26 08:55:06;;;;;;;15.00;5.82;;;21.70;75.90;;;;;;5053103;28;20469;-91
2023/06/26 08:57:32;;;;;;;10.73;4.60;;;21.70;76.10;;;;;;5084652;28;20028;-89
2023/06/26 08:59:58;;;;;;;21.35;5.78;;;21.70;75.70;;;;;;5052744;28;20021;-90
2023/06/26 09:02:24;;;;;;;5.47;3.25;;;21.70;75.80;;;;;;5053307;28;20070;-92
2023/06/26 09:04:50;;;;;;;10.02;4.95;;;21.70;76.10;;;;;;5050538;28;20040;-91
2023/06/26 09:07:16;;;;;;;13.07;5.28;;;21.80;78.10;;;;;;5053159;28;20033;-86
2023/06/26 09:09:42;;;;;;;17.52;5.30;;;22.30;78.10;;;;;;5050527;28;20020;-89
2023/06/26 09:12:11;;;;;;;8.68;5.10;;;22.90;77.90;;;;;;5051075;28;20028;-89
2023/06/26 09:14:42;;;;;;;9.93;5.45;;;23.00;78.60;;;;;;5047483;28;20029;-89
2023/06/26 09:17:08;;;;;;;11.68;5.18;;;23.00;77.60;;;;;;5053015;28;20039;-91
2023/06/26 09:19:38;;;;;;;5.55;3.92;;;23.00;77.20;;;;;;5082979;28;20017;-92
2023/06/26 09:22:03;;;;;;;6.25;3.97;;;23.20;74.40;;;;;;5049712;28;20054;-92
2023/06/26 09:24:30;;;;;;;6.85;3.90;;;23.30;70.70;;;;;;5053949;28;20029;-91
2023/06/26 09:26:56;;;;;;;7.82;4.30;;;23.40;69.70;;;;;;5055219;28;20012;-92
2023/06/26 09:29:22;;;;;;;6.32;3.60;;;23.30;68.50;;;;;;5052273;28;20489;-87
2023/06/26 09:31:47;;;;;;;5.63;3.60;;;23.40;68.30;;;;;;5051395;28;20012;-88
2023/06/26 09:34:13;;;;;;;8.38;3.70;;;23.50;66.20;;;;;;5048406;28;20025;-90
2023/06/26 09:36:41;;;;;;;10.93;4.55;;;23.50;66.50;;;;;;5049554;28;20021;-89
2023/06/26 09:39:14;;;;;;;6.18;3.92;;;23.60;65.90;;;;;;5054346;28;20024;-91
2023/06/26 09:41:44;;;;;;;5.55;3.63;;;23.70;66.70;;;;;;5050437;28;20024;-91
2023/06/26 09:44:14;;;;;;;7.18;4.15;;;23.80;65.10;;;;;;5052115;28;20361;-88
2023/06/26 09:46:49;;;;;;;;;;;23.80;65.30;;;;;;5089914;28;20020;-87
2023/06/26 09:49:21;;;;;;;8.02;4.82;;;23.80;64.80;;;;;;5101966;28;19998;-93
2023/06/26 09:51:48;;;;;;;6.68;4.22;;;23.90;65.40;;;;;;5059560;28;20017;-89
2023/06/26 09:54:20;;;;;;;10.05;4.22;;;23.90;64.60;;;;;;5053354;28;20282;-91
2023/06/26 09:56:46;;;;;;;8.15;4.65;;;23.90;65.30;;;;;;5081294;28;20021;-92
2023/06/26 09:59:11;;;;;;;8.02;4.18;;;24.00;64.10;;;;;;5048384;28;20046;-91
2023/06/26 10:01:41;;;;;;;4.95;3.80;;;24.10;63.30;;;;;;5048352;28;20086;-90
2023/06/26 10:04:06;;;;;;;6.53;4.20;;;24.00;62.50;;;;;;5054519;28;20193;-90
2023/06/26 10:06:38;;;;;;;6.63;4.32;;;24.10;63.30;;;;;;5052536;28;20056;-89
2023/06/26 10:09:04;;;;;;;5.53;4.00;;;24.20;62.60;;;;;;5057361;28;20025;-87
2023/06/26 10:11:59;;;;;;;6.63;4.50;;;24.10;63.80;;;;;;5056233;28;20099;-91
2023/06/26 10:14:39;;;;;;;6.15;3.88;;;24.00;63.60;;;;;;5049025;28;20037;-89
2023/06/26 10:17:10;;;;;;;4.80;3.75;;;24.10;64.40;;;;;;5049569;28;20427;-91
2023/06/26 10:19:39;;;;;;;6.50;4.65;;;24.20;63.60;;;;;;5080043;28;20533;-91
2023/06/26 10:22:05;;;;;;;7.63;4.20;;;24.30;63.70;;;;;;5056628;28;20029;-90
2023/06/26 10:24:34;;;;;;;9.57;3.67;;;24.30;62.30;;;;;;5050422;28;20029;-88
2023/06/26 10:27:41;;;;;;;7.43;4.27;;;24.40;62.00;;;;;;5055730;28;20052;-96
2023/06/26 10:30:12;;;;;;;7.15;4.30;;;24.50;61.30;;;;;;5061306;28;20275;-91
2023/06/26 10:32:37;;;;;;;32.33;4.82;;;24.40;60.30;;;;;;5046861;28;20036;-92
2023/06/26 10:35:06;;;;;;;20.35;4.53;;;24.40;61.40;;;;;;5044638;28;20393;-88
2023/06/26 10:38:06;;;;;;;6.50;4.32;;;24.50;60.90;;;;;;5047995;28;20021;-93
2023/06/26 10:40:44;;;;;;;12.10;3.78;;;24.40;62.00;;;;;;5051444;28;20036;-92
2023/06/26 10:43:11;;;;;;;6.50;4.22;;;24.30;61.20;;;;;;5051178;28;20068;-93
2023/06/26 10:45:43;;;;;;;10.32;4.03;;;24.40;61.20;;;;;;5054682;28;20664;-92
2023/06/26 10:48:08;;;;;;;6.97;4.00;;;24.50;61.30;;;;;;5049516;28;20028;-90
2023/06/26 10:50:40;;;;;;;6.93;4.13;;;24.50;61.30;;;;;;5076747;28;20032;-92
2023/06/26 10:53:12;;;;;;;6.60;4.55;;;24.60;61.70;;;;;;5052566;28;20107;-90
2023/06/26 10:55:42;;;;;;;6.90;4.18;;;24.50;61.10;;;;;;5052730;28;20020;-90
2023/06/26 10:58:28;;;;;;;5.75;4.35;;;24.60;61.40;;;;;;5048269;28;20036;-92
2023/06/26 11:01:19;;;;;;;9.00;4.70;;;24.50;61.60;;;;;;5066767;28;20021;-95
2023/06/26 11:04:01;;;;;;;6.75;4.10;;;24.50;59.90;;;;;;5048792;28;20031;-89
2023/06/26 11:06:27;;;;;;;6.40;4.53;;;24.50;60.00;;;;;;5054009;28;20027;-91
2023/06/26 11:09:23;;;;;;;12.60;5.35;;;24.70;61.10;;;;;;5060460;28;20059;-90
2023/06/26 11:11:52;;;;;;;7.70;4.60;;;24.70;60.50;;;;;;5048936;28;20056;-91
2023/06/26 11:14:26;;;;;;;8.23;4.55;;;24.60;61.10;;;;;;5055409;28;20020;-91
2023/06/26 11:16:52;;;;;;;5.72;4.20;;;24.60;60.70;;;;;;5086727;28;20062;-91
2023/06/26 11:19:19;;;;;;;6.45;4.30;;;24.70;61.10;;;;;;5047583;28;20028;-93
2023/06/26 11:21:45;;;;;;;7.28;4.45;;;24.70;60.60;;;;;;5051080;28;20023;-92
2023/06/26 11:24:13;;;;;;;5.65;4.25;;;24.70;63.10;;;;;;5054047;28;20028;-91
2023/06/26 11:26:43;;;;;;;7.65;4.85;;;24.70;60.90;;;;;;5047868;28;20352;-92
2023/06/26 11:29:09;;;;;;;;;;;24.70;59.30;;;;;;5049371;28;20013;-91
2023/06/26 11:31:38;;;;;;;7.43;4.45;;;24.80;60.00;;;;;;5051924;28;20007;-88
2023/06/26 11:34:11;;;;;;;6.70;4.68;;;24.70;59.30;;;;;;5049302;28;20089;-93
2023/06/26 11:36:38;;;;;;;7.90;4.63;;;24.60;59.20;;;;;;5047206;28;20035;-90
2023/06/26 11:39:07;;;;;;;7.85;4.53;;;24.50;59.40;;;;;;5054197;28;20146;-94
2023/06/26 11:41:42;;;;;;;6.07;4.20;;;24.60;60.00;;;;;;5047923;28;20061;-92
2023/06/26 11:44:11;;;;;;;9.48;4.65;;;24.70;59.80;;;;;;5049839;28;20040;-92
2023/06/26 11:46:37;;;;;;;7.32;5.07;;;24.80;61.10;;;;;;5041901;28;20089;-92
2023/06/26 11:49:05;;;;;;;7.53;4.63;;;24.80;59.90;;;;;;5048603;28;20020;-93
2023/06/26 11:51:30;;;;;;;9.43;4.57;;;24.80;60.30;;;;;;5052872;28;20099;-93
2023/06/26 11:53:56;;;;;;;8.98;5.43;;;24.80;58.70;;;;;;5049014;28;20024;-94
2023/06/26 11:56:22;;;;;;;6.95;4.78;;;24.90;59.10;;;;;;5049540;28;20539;-92
2023/06/26 11:59:02;;;;;;;12.75;5.13;;;25.00;61.10;;;;;;5048340;28;20128;-90
2023/06/26 12:01:35;;;;;;;7.60;4.88;;;25.00;61.50;;;;;;5062740;28;20400;-90
2023/06/26 12:04:03;;;;;;;10.27;4.70;;;24.90;59.50;;;;;;5050581;28;20115;-91
2023/06/26 12:06:31;;;;;;;7.95;4.78;;;24.80;58.60;;;;;;5047846;28;20082;-90
2023/06/26 12:08:59;;;;;;;12.77;5.22;;;24.70;59.40;;;;;;5079822;28;20580;-91
2023/06/26 12:11:25;;;;;;;8.63;4.93;;;24.70;60.00;;;;;;5082787;28;20020;-92
2023/06/26 12:13:51;;;;;;;8.95;4.40;;;24.90;59.90;;;;;;5045457;28;20144;-89
2023/06/26 12:16:18;;;;;;;9.80;4.30;;;25.00;58.70;;;;;;5077708;28;20036;-92
2023/06/26 12:18:43;;;;;;;9.52;5.13;;;24.80;60.10;;;;;;5049412;28;20545;-93
2023/06/26 12:21:35;;;;;;;9.75;4.80;;;24.70;59.60;;;;;;5053679;28;20024;-93
2023/06/26 12:24:01;;;;;;;6.97;4.80;;;24.60;59.40;;;;;;5051760;28;20036;-92
2023/06/26 12:26:33;;;;;;;8.52;4.75;;;24.60;60.20;;;;;;5070234;28;20380;-94
2023/06/26 12:29:06;;;;;;;8.90;5.38;;;24.70;60.00;;;;;;5085394;28;20706;-91
2023/06/26 12:31:33;;;;;;;7.85;4.72;;;24.60;60.30;;;;;;5069515;28;20077;-93
2023/06/26 12:33:59;;;;;;;7.43;5.40;;;24.60;60.80;;;;;;5049111;28;20557;-92
2023/06/26 12:36:25;;;;;;;11.13;5.68;;;24.70;61.60;;;;;;5042035;28;20025;-92
2023/06/26 12:38:53;;;;;;;12.25;5.05;;;24.60;62.10;;;;;;5052587;28;20044;-92
2023/06/26 12:41:20;;;;;;;10.70;5.15;;;24.70;61.50;;;;;;5048804;28;20028;-93
2023/06/26 12:43:46;;;;;;;8.13;5.20;;;24.60;61.40;;;;;;5049092;28;20024;-94